Time;durP1;ratioP1;P1;durP2;ratioP2;P2;SDS_P1;SDS_P2;PMS_P1;PMS_P2;Temp;Humidity;BMP_temperature;BMP_pressure;BME280_temperature;BME280_humidity;BME280_pressure;Samples;Min_cycle;Max_cycle;Signal;HPM_P1;HPM_P2
2023/04/04 00:01:05;;;;;;;6.47;2.08;;;5.00;99.90;;;;;;5160503;27;20035;-71
2023/04/04 00:03:31;;;;;;;3.85;1.92;;;4.90;99.90;;;;;;5160266;27;20356;-72
2023/04/04 00:05:57;;;;;;;4.60;2.30;;;5.00;99.90;;;;;;5159758;27;20050;-72
2023/04/04 00:08:23;;;;;;;6.40;2.40;;;5.00;99.90;;;;;;5160416;27;20031;-72
2023/04/04 00:10:48;;;;;;;7.85;2.40;;;5.00;99.90;;;;;;5160421;27;20046;-72
2023/04/04 00:13:14;;;;;;;9.25;3.45;;;5.00;99.90;;;;;;5160352;27;20041;-72
2023/04/04 00:15:40;;;;;;;9.57;3.40;;;4.90;99.90;;;;;;5159986;27;20038;-71
2023/04/04 00:18:06;;;;;;;11.73;3.60;;;5.00;99.90;;;;;;5160024;27;20050;-72
2023/04/04 00:20:32;;;;;;;11.57;3.17;;;4.90;99.90;;;;;;5159769;27;20117;-72
2023/04/04 00:22:57;;;;;;;12.07;4.20;;;4.90;99.90;;;;;;5160127;27;20074;-72
2023/04/04 00:25:24;;;;;;;7.53;3.15;;;4.80;99.90;;;;;;5160106;27;20095;-71
2023/04/04 00:27:50;;;;;;;9.40;3.40;;;4.80;99.90;;;;;;5160096;27;20038;-72
2023/04/04 00:30:16;;;;;;;10.05;2.80;;;4.80;99.90;;;;;;5160046;27;20049;-71
2023/04/04 00:32:41;;;;;;;7.63;3.08;;;4.80;99.90;;;;;;5141727;27;20121;-71
2023/04/04 00:35:07;;;;;;;8.88;2.92;;;4.80;99.90;;;;;;5159866;27;20039;-72
2023/04/04 00:37:34;;;;;;;8.07;2.88;;;4.80;99.90;;;;;;5159238;27;20514;-72
2023/04/04 00:40:00;;;;;;;7.78;2.75;;;4.80;99.90;;;;;;5159823;27;20309;-71
2023/04/04 00:42:26;;;;;;;10.23;3.05;;;4.80;99.90;;;;;;5159669;27;20102;-72
2023/04/04 00:44:52;;;;;;;8.48;3.28;;;4.80;99.90;;;;;;5141009;27;20438;-71
2023/04/04 00:47:21;;;;;;;9.50;3.08;;;4.80;99.90;;;;;;5159633;27;20118;-71
2023/04/04 00:49:47;;;;;;;11.57;2.97;;;4.70;99.90;;;;;;5159638;27;20057;-72
2023/04/04 00:52:13;;;;;;;8.55;2.95;;;4.80;99.90;;;;;;5159338;27;20038;-72
2023/04/04 00:54:39;;;;;;;5.68;2.67;;;4.80;99.90;;;;;;5159285;27;20034;-72
2023/04/04 00:57:07;;;;;;;6.88;2.83;;;4.90;99.90;;;;;;5159277;27;20065;-72
2023/04/04 00:59:33;;;;;;;9.45;2.90;;;4.90;99.90;;;;;;5158706;27;20049;-71
2023/04/04 01:01:59;;;;;;;6.95;3.17;;;4.80;99.90;;;;;;5158972;27;20039;-71
2023/04/04 01:04:27;;;;;;;8.73;3.03;;;4.80;99.90;;;;;;5140551;27;20454;-72
2023/04/04 01:06:53;;;;;;;11.85;3.13;;;4.80;99.90;;;;;;5158589;27;20488;-71
2023/04/04 01:09:18;;;;;;;8.45;3.67;;;4.90;99.90;;;;;;5158929;27;20046;-71
2023/04/04 01:11:44;;;;;;;7.05;2.72;;;4.90;99.90;;;;;;5159190;27;20050;-71
2023/04/04 01:14:10;;;;;;;7.75;3.17;;;4.90;99.90;;;;;;5158831;27;20121;-72
2023/04/04 01:16:36;;;;;;;10.98;2.88;;;4.90;99.90;;;;;;5159112;27;20089;-72
2023/04/04 01:19:05;;;;;;;7.50;3.28;;;4.90;99.90;;;;;;5140749;27;20086;-72
2023/04/04 01:21:31;;;;;;;8.00;3.00;;;4.90;99.90;;;;;;5158962;27;20117;-72
2023/04/04 01:24:02;;;;;;;5.90;3.15;;;4.80;99.90;;;;;;5159009;27;20114;-72
2023/04/04 01:26:28;;;;;;;7.25;3.05;;;4.80;99.90;;;;;;5158624;27;20122;-72
2023/04/04 01:28:55;;;;;;;7.40;3.00;;;4.80;99.90;;;;;;5158586;27;20486;-72
2023/04/04 01:31:28;;;;;;;9.70;3.28;;;4.80;99.90;;;;;;5158890;27;20050;-72
2023/04/04 01:34:03;;;;;;;5.07;2.72;;;4.80;99.90;;;;;;5158688;27;20103;-72
2023/04/04 01:36:41;;;;;;;5.95;2.65;;;4.80;99.90;;;;;;5158430;27;20038;-72
2023/04/04 01:39:21;;;;;;;5.53;2.88;;;4.80;99.90;;;;;;5158496;27;20037;-72
2023/04/04 01:41:48;;;;;;;6.00;2.83;;;4.80;99.90;;;;;;5158706;27;20388;-72
2023/04/04 01:44:16;;;;;;;8.98;2.95;;;4.80;99.90;;;;;;5158728;27;20083;-72
2023/04/04 01:46:42;;;;;;;6.30;2.83;;;4.80;99.90;;;;;;5158646;27;20041;-73
2023/04/04 01:49:07;;;;;;;6.85;2.90;;;4.70;99.90;;;;;;5158783;27;20304;-72
2023/04/04 01:51:33;;;;;;;7.90;2.83;;;4.70;99.90;;;;;;5158603;27;20106;-72
2023/04/04 01:53:59;;;;;;;6.38;2.83;;;4.70;99.90;;;;;;5158579;27;20035;-72
2023/04/04 01:56:25;;;;;;;6.10;2.92;;;4.70;99.90;;;;;;5158599;27;20355;-72
2023/04/04 01:58:51;;;;;;;6.93;2.92;;;4.70;99.90;;;;;;5158515;27;20407;-72
2023/04/04 02:01:17;;;;;;;7.18;3.00;;;4.60;99.90;;;;;;5158445;27;20109;-72
2023/04/04 02:03:42;;;;;;;9.60;2.88;;;4.60;99.90;;;;;;5158151;27;20388;-72
2023/04/04 02:06:08;;;;;;;8.10;3.08;;;4.60;99.90;;;;;;5158061;27;20116;-72
2023/04/04 02:08:33;;;;;;;8.18;2.85;;;4.50;99.90;;;;;;5158470;27;20079;-72
2023/04/04 02:11:00;;;;;;;7.72;3.30;;;4.60;99.90;;;;;;5161672;27;20430;-72
2023/04/04 02:13:26;;;;;;;6.68;2.58;;;4.50;99.90;;;;;;5162373;27;20042;-72
2023/04/04 02:15:52;;;;;;;8.15;3.08;;;4.50;99.90;;;;;;5162648;27;20046;-72
2023/04/04 02:18:18;;;;;;;7.65;2.83;;;4.50;99.90;;;;;;5162355;27;20099;-72
2023/04/04 02:20:43;;;;;;;6.65;3.20;;;4.60;99.90;;;;;;5162463;27;20047;-72
2023/04/04 02:23:09;;;;;;;6.82;2.80;;;4.60;99.90;;;;;;5162198;27;20035;-72
2023/04/04 02:25:35;;;;;;;9.05;3.00;;;4.60;99.90;;;;;;5162480;27;20118;-72
2023/04/04 02:28:00;;;;;;;10.05;3.67;;;4.60;99.90;;;;;;5162389;27;20476;-72
2023/04/04 02:30:26;;;;;;;8.40;2.95;;;4.60;99.90;;;;;;5162374;27;20094;-72
2023/04/04 02:32:52;;;;;;;8.50;3.25;;;4.60;99.90;;;;;;5162003;27;20039;-72
2023/04/04 02:35:17;;;;;;;6.20;2.60;;;4.60;99.90;;;;;;5162284;27;20043;-72
2023/04/04 02:37:46;;;;;;;8.90;3.10;;;4.40;99.90;;;;;;5161838;27;20034;-72
2023/04/04 02:40:12;;;;;;;5.65;2.88;;;4.40;99.90;;;;;;5161905;27;20091;-72
2023/04/04 02:42:42;;;;;;;9.07;3.10;;;4.30;99.90;;;;;;5161959;27;20109;-72
2023/04/04 02:45:09;;;;;;;9.00;3.53;;;4.40;99.90;;;;;;5161788;27;20439;-72
2023/04/04 02:47:35;;;;;;;6.30;3.03;;;4.40;99.90;;;;;;5161981;27;20071;-73
2023/04/04 02:50:00;;;;;;;6.38;2.90;;;4.30;99.90;;;;;;5161695;27;20118;-72
2023/04/04 02:52:26;;;;;;;8.18;3.08;;;4.40;99.90;;;;;;5143255;27;20053;-72
2023/04/04 02:54:52;;;;;;;6.30;2.65;;;4.40;99.90;;;;;;5161586;27;20053;-72
2023/04/04 02:57:18;;;;;;;5.95;2.63;;;4.40;99.90;;;;;;5161573;27;20126;-73
2023/04/04 02:59:43;;;;;;;5.88;3.00;;;4.30;99.90;;;;;;5161543;27;20100;-72
2023/04/04 03:02:09;;;;;;;6.80;2.63;;;4.20;99.90;;;;;;5161633;27;20031;-73
2023/04/04 03:04:35;;;;;;;7.75;3.10;;;4.30;99.90;;;;;;5161272;27;20458;-72
2023/04/04 03:07:02;;;;;;;7.50;2.60;;;4.30;99.90;;;;;;5161259;27;20039;-72
2023/04/04 03:09:28;;;;;;;7.75;3.20;;;4.20;99.90;;;;;;5161711;27;20039;-73
2023/04/04 03:11:54;;;;;;;7.75;3.28;;;4.30;99.90;;;;;;5161683;27;20043;-73
2023/04/04 03:14:20;;;;;;;7.28;3.05;;;4.20;99.90;;;;;;5143111;27;20043;-72
2023/04/04 03:16:48;;;;;;;7.22;2.60;;;4.10;99.90;;;;;;5161428;27;20106;-72
2023/04/04 03:19:15;;;;;;;6.10;2.78;;;4.10;99.90;;;;;;5161190;27;20091;-72
2023/04/04 03:21:40;;;;;;;7.65;2.90;;;4.00;99.90;;;;;;5160484;27;20049;-72
2023/04/04 03:24:06;;;;;;;7.43;2.67;;;4.10;99.90;;;;;;5161326;27;20038;-72
2023/04/04 03:26:32;;;;;;;9.95;3.45;;;4.00;99.90;;;;;;5161012;27;20324;-72
2023/04/04 03:28:57;;;;;;;9.65;3.05;;;3.90;99.90;;;;;;5161255;27;20045;-72
2023/04/04 03:31:23;;;;;;;10.27;3.22;;;3.70;99.90;;;;;;5161180;27;20042;-73
2023/04/04 03:33:49;;;;;;;6.47;2.85;;;3.80;99.90;;;;;;5161164;27;20461;-72
2023/04/04 03:36:15;;;;;;;9.57;3.35;;;3.80;99.90;;;;;;5160671;27;20062;-72
2023/04/04 03:38:41;;;;;;;5.60;2.78;;;3.80;99.90;;;;;;5161021;27;20121;-72
2023/04/04 03:41:07;;;;;;;7.47;3.10;;;3.90;99.90;;;;;;5160658;27;20438;-72
2023/04/04 03:43:34;;;;;;;8.95;2.90;;;3.90;99.90;;;;;;5160696;27;20431;-72
2023/04/04 03:46:04;;;;;;;6.70;2.60;;;3.90;99.90;;;;;;5160602;27;20031;-72
2023/04/04 03:48:30;;;;;;;6.45;2.90;;;3.90;99.90;;;;;;5161141;27;20038;-72
2023/04/04 03:50:56;;;;;;;9.93;3.13;;;3.90;99.90;;;;;;5160525;27;20043;-72
2023/04/04 03:53:27;;;;;;;5.78;2.80;;;3.90;99.90;;;;;;5160449;27;20042;-72
2023/04/04 03:55:55;;;;;;;8.63;2.65;;;3.80;99.90;;;;;;5160778;27;20091;-72
2023/04/04 03:58:21;;;;;;;8.57;3.15;;;3.70;99.90;;;;;;5160699;27;20030;-72
2023/04/04 04:00:47;;;;;;;7.93;2.97;;;3.70;99.90;;;;;;5160525;27;20074;-72
2023/04/04 04:03:13;;;;;;;8.00;3.17;;;3.60;99.90;;;;;;5160428;27;20030;-73
2023/04/04 04:05:39;;;;;;;7.18;2.55;;;3.60;99.90;;;;;;5159678;27;20039;-73
2023/04/04 04:08:05;;;;;;;5.97;2.63;;;3.60;99.90;;;;;;5160506;27;20407;-72
2023/04/04 04:10:32;;;;;;;7.30;3.10;;;3.60;99.90;;;;;;5160446;27;20042;-72
2023/04/04 04:12:58;;;;;;;8.85;3.33;;;3.60;99.90;;;;;;5160418;27;20109;-72
2023/04/04 04:15:23;;;;;;;6.38;2.92;;;3.60;99.90;;;;;;5152476;27;20062;-73
2023/04/04 04:17:49;;;;;;;7.68;3.00;;;3.60;99.90;;;;;;5158298;27;20030;-73
2023/04/04 04:20:15;;;;;;;8.10;3.10;;;3.60;99.90;;;;;;5160050;27;20045;-72
2023/04/04 04:22:46;;;;;;;7.60;2.95;;;3.60;99.90;;;;;;5159785;27;20042;-72
2023/04/04 04:25:12;;;;;;;8.45;3.00;;;3.70;99.90;;;;;;5160108;27;20045;-73
2023/04/04 04:27:38;;;;;;;10.25;4.03;;;3.70;99.90;;;;;;5160115;27;20058;-72
2023/04/04 04:30:04;;;;;;;7.88;3.08;;;3.60;99.90;;;;;;5159717;27;20042;-72
2023/04/04 04:32:29;;;;;;;5.00;2.75;;;3.60;99.90;;;;;;5159476;27;20046;-72
2023/04/04 04:34:55;;;;;;;7.10;2.85;;;3.60;99.90;;;;;;5159180;27;20039;-72
2023/04/04 04:37:22;;;;;;;7.05;3.03;;;3.50;99.90;;;;;;5159194;27;20043;-72
2023/04/04 04:39:48;;;;;;;8.70;2.90;;;3.40;99.90;;;;;;5159835;27;20115;-72
2023/04/04 04:42:13;;;;;;;5.82;2.97;;;3.50;99.90;;;;;;5159415;27;20043;-73
2023/04/04 04:44:39;;;;;;;7.57;3.05;;;3.50;99.90;;;;;;5159432;27;20041;-72
2023/04/04 04:47:05;;;;;;;6.78;2.97;;;3.50;99.90;;;;;;5159683;27;20038;-72
2023/04/04 04:49:31;;;;;;;7.53;3.35;;;3.50;99.90;;;;;;5159511;27;20334;-72
2023/04/04 04:51:56;;;;;;;6.43;2.80;;;3.60;99.90;;;;;;5159564;27;20331;-72
2023/04/04 04:54:22;;;;;;;13.35;4.45;;;3.50;99.90;;;;;;5159232;27;20043;-72
2023/04/04 04:56:48;;;;;;;8.13;3.40;;;3.50;99.90;;;;;;5159483;27;20038;-72
2023/04/04 04:59:14;;;;;;;7.72;3.63;;;3.50;99.90;;;;;;5159474;27;20475;-72
2023/04/04 05:01:40;;;;;;;8.45;3.88;;;3.60;99.90;;;;;;5159046;27;20082;-72
2023/04/04 05:04:05;;;;;;;7.57;3.28;;;3.60;99.90;;;;;;5159090;27;20090;-72
2023/04/04 05:06:31;;;;;;;6.97;3.40;;;3.60;99.90;;;;;;5140356;27;20043;-72
2023/04/04 05:08:57;;;;;;;8.82;3.55;;;3.60;99.90;;;;;;5159258;27;20034;-72
2023/04/04 05:11:22;;;;;;;8.65;3.72;;;3.60;99.90;;;;;;5158921;27;20038;-72
2023/04/04 05:13:48;;;;;;;10.52;3.20;;;3.50;99.90;;;;;;5159156;27;20041;-72
2023/04/04 05:16:15;;;;;;;7.78;3.10;;;3.50;99.90;;;;;;5159121;27;20339;-72
2023/04/04 05:18:40;;;;;;;6.57;3.25;;;3.40;99.90;;;;;;5159130;27;20047;-72
2023/04/04 05:21:06;;;;;;;8.73;3.17;;;3.40;99.90;;;;;;5158662;27;20103;-72
2023/04/04 05:23:32;;;;;;;8.95;3.58;;;3.40;99.90;;;;;;5158987;27;20030;-72
2023/04/04 05:25:57;;;;;;;8.45;3.40;;;3.40;99.90;;;;;;5158676;27;20042;-72
2023/04/04 05:28:23;;;;;;;8.38;3.38;;;3.40;99.90;;;;;;5140376;27;20087;-72
2023/04/04 05:30:49;;;;;;;10.68;3.65;;;3.40;99.90;;;;;;5158924;27;20073;-72
2023/04/04 05:33:14;;;;;;;6.05;3.25;;;3.40;99.90;;;;;;5158554;27;20034;-72
2023/04/04 05:35:40;;;;;;;8.77;3.10;;;3.50;99.90;;;;;;5158514;27;20035;-72
2023/04/04 05:38:06;;;;;;;6.97;3.40;;;3.50;99.90;;;;;;5158351;27;20045;-72
2023/04/04 05:40:32;;;;;;;7.60;3.70;;;3.60;99.90;;;;;;5140469;27;20309;-72
2023/04/04 05:42:59;;;;;;;8.23;3.17;;;3.80;99.90;;;;;;5158409;27;20039;-72
2023/04/04 05:45:25;;;;;;;7.45;3.05;;;3.70;99.90;;;;;;5158331;27;20038;-72
2023/04/04 05:47:51;;;;;;;8.25;3.13;;;3.80;99.90;;;;;;5158924;27;20039;-72
2023/04/04 05:50:17;;;;;;;7.35;2.97;;;3.80;99.90;;;;;;5158617;27;20315;-72
2023/04/04 05:52:45;;;;;;;7.15;3.80;;;3.80;99.90;;;;;;5158598;27;20039;-72
2023/04/04 05:55:10;;;;;;;9.95;3.60;;;3.80;99.90;;;;;;5158593;27;20327;-72
2023/04/04 05:57:36;;;;;;;8.18;3.25;;;3.80;99.90;;;;;;5158473;27;20042;-72
2023/04/04 06:00:04;;;;;;;9.50;3.63;;;3.80;99.90;;;;;;5158168;27;20098;-72
2023/04/04 06:02:30;;;;;;;6.82;3.13;;;3.80;99.90;;;;;;5158451;27;20043;-72
2023/04/04 06:04:56;;;;;;;8.18;2.90;;;3.80;99.90;;;;;;5158005;27;20097;-72
2023/04/04 06:07:22;;;;;;;9.52;3.13;;;3.80;99.90;;;;;;5158071;27;20074;-72
2023/04/04 06:09:47;;;;;;;10.48;3.53;;;3.80;99.90;;;;;;5158091;27;20332;-72
2023/04/04 06:12:13;;;;;;;8.45;3.22;;;3.80;99.90;;;;;;5158351;27;20039;-72
2023/04/04 06:14:39;;;;;;;7.47;3.13;;;3.90;99.90;;;;;;5158377;27;20039;-72
2023/04/04 06:17:05;;;;;;;11.63;4.15;;;3.90;99.90;;;;;;5158126;27;20328;-72
2023/04/04 06:19:31;;;;;;;6.55;3.35;;;4.00;99.90;;;;;;5158346;27;20035;-72
2023/04/04 06:21:56;;;;;;;6.90;3.10;;;4.10;99.90;;;;;;5157848;27;20049;-72
2023/04/04 06:24:22;;;;;;;6.70;3.42;;;4.20;99.90;;;;;;5158369;27;20035;-72
2023/04/04 06:26:50;;;;;;;6.95;3.08;;;4.40;99.90;;;;;;5139722;27;20039;-72
2023/04/04 06:29:17;;;;;;;6.43;3.00;;;4.50;99.90;;;;;;5158225;27;20045;-72
2023/04/04 06:31:43;;;;;;;10.15;3.63;;;4.70;99.90;;;;;;5139372;27;20091;-72
2023/04/04 06:34:08;;;;;;;9.15;3.25;;;4.80;99.90;;;;;;5158166;27;20038;-72
2023/04/04 06:36:34;;;;;;;11.52;3.40;;;4.90;99.90;;;;;;5157795;27;20041;-72
2023/04/04 06:39:00;;;;;;;7.90;2.90;;;4.90;99.90;;;;;;5158172;27;20038;-72
2023/04/04 06:41:26;;;;;;;8.48;3.40;;;5.00;99.90;;;;;;5158078;27;20043;-72
2023/04/04 06:43:52;;;;;;;7.85;3.00;;;5.10;99.90;;;;;;5157829;27;20039;-73
2023/04/04 06:46:17;;;;;;;10.57;3.40;;;5.10;99.90;;;;;;5158073;27;20031;-72
2023/04/04 06:48:43;;;;;;;11.70;3.58;;;5.00;99.90;;;;;;5139536;27;20289;-72
2023/04/04 06:51:10;;;;;;;8.82;3.30;;;5.00;99.90;;;;;;5158050;27;20049;-72
2023/04/04 06:53:37;;;;;;;8.77;3.40;;;5.00;99.90;;;;;;5157992;27;20045;-72
2023/04/04 06:56:03;;;;;;;10.63;3.20;;;4.90;99.90;;;;;;5158012;27;20175;-72
2023/04/04 06:58:29;;;;;;;11.90;3.78;;;5.00;99.90;;;;;;5161790;27;20035;-67
2023/04/04 07:00:58;;;;;;;7.72;2.97;;;5.10;99.90;;;;;;5161519;27;20428;-67
2023/04/04 07:03:24;;;;;;;7.35;3.63;;;4.90;99.90;;;;;;5161772;27;20035;-67
2023/04/04 07:05:50;;;;;;;8.80;3.58;;;5.00;99.90;;;;;;5142531;27;20340;-78
2023/04/04 07:08:15;;;;;;;9.55;3.40;;;5.00;99.90;;;;;;5161681;27;20043;-66
2023/04/04 07:10:41;;;;;;;8.95;3.33;;;5.10;99.90;;;;;;5161619;27;20034;-67
2023/04/04 07:13:07;;;;;;;4.32;2.90;;;5.20;99.90;;;;;;5161586;27;20070;-67
2023/04/04 07:15:32;;;;;;;11.70;3.50;;;5.50;99.90;;;;;;5161518;27;20023;-66
2023/04/04 07:17:58;;;;;;;6.50;3.33;;;5.60;99.90;;;;;;5143259;27;20463;-67
2023/04/04 07:20:25;;;;;;;7.57;2.95;;;5.80;99.90;;;;;;5161128;27;20081;-67
2023/04/04 07:22:51;;;;;;;8.40;3.10;;;6.00;99.90;;;;;;5161368;27;20051;-67
2023/04/04 07:25:17;;;;;;;8.73;3.42;;;6.20;99.90;;;;;;5161048;27;20514;-67
2023/04/04 07:27:42;;;;;;;10.57;3.10;;;6.40;99.90;;;;;;5161393;27;20038;-68
2023/04/04 07:30:09;;;;;;;6.05;2.90;;;6.40;99.90;;;;;;5142751;27;20083;-67
2023/04/04 07:32:36;;;;;;;6.95;2.42;;;6.30;99.90;;;;;;5160998;27;20038;-68
2023/04/04 07:35:05;;;;;;;7.93;2.97;;;6.40;99.90;;;;;;5160111;27;20125;-67
2023/04/04 07:37:32;;;;;;;12.35;2.80;;;6.30;99.90;;;;;;5141710;27;20327;-68
2023/04/04 07:39:58;;;;;;;7.45;2.75;;;6.50;99.90;;;;;;5160660;27;20034;-69
2023/04/04 07:42:24;;;;;;;6.68;2.30;;;6.50;99.90;;;;;;5160583;27;20038;-68
2023/04/04 07:44:50;;;;;;;7.13;1.90;;;6.40;99.90;;;;;;5160562;27;20039;-68
2023/04/04 07:47:17;;;;;;;7.88;1.80;;;6.30;99.90;;;;;;5142263;27;20335;-68
2023/04/04 07:49:43;;;;;;;7.32;2.33;;;6.20;99.90;;;;;;5160873;27;20038;-67
2023/04/04 07:52:09;;;;;;;6.85;1.83;;;6.20;99.90;;;;;;5160792;27;20045;-68
2023/04/04 07:54:35;;;;;;;5.88;1.77;;;6.20;99.90;;;;;;5160516;27;20114;-68
2023/04/04 07:57:04;;;;;;;5.55;1.45;;;6.30;99.90;;;;;;5160731;27;20050;-67
2023/04/04 07:59:30;;;;;;;6.88;2.00;;;6.10;99.90;;;;;;5160697;27;20047;-68
2023/04/04 08:01:56;;;;;;;6.50;1.40;;;6.50;99.90;;;;;;5160244;27;20455;-67
2023/04/04 08:04:22;;;;;;;7.25;1.52;;;6.50;99.90;;;;;;5160296;27;20096;-68
2023/04/04 08:06:47;;;;;;;6.80;1.90;;;6.20;99.90;;;;;;5159819;27;20402;-67
2023/04/04 08:09:13;;;;;;;4.65;1.50;;;6.50;99.90;;;;;;5160188;27;20034;-68
2023/04/04 08:11:39;;;;;;;6.20;1.88;;;6.80;99.90;;;;;;5152292;27;20100;-68
2023/04/04 08:14:04;;;;;;;4.93;1.38;;;6.90;99.90;;;;;;5142691;27;20035;-68
2023/04/04 08:16:30;;;;;;;6.25;2.28;;;6.80;99.90;;;;;;5150921;27;20045;-68
2023/04/04 08:18:56;;;;;;;6.47;1.92;;;7.00;99.90;;;;;;5145229;27;20047;-71
2023/04/04 08:21:22;;;;;;;3.92;1.60;;;7.10;99.90;;;;;;5148288;27;20332;-68
2023/04/04 08:23:47;;;;;;;4.30;1.33;;;7.30;99.90;;;;;;5142040;27;20035;-69
2023/04/04 08:26:13;;;;;;;5.68;2.10;;;7.40;99.90;;;;;;5138436;27;20099;-68
2023/04/04 08:28:39;;;;;;;5.28;1.58;;;7.40;99.90;;;;;;5139399;27;20508;-68
2023/04/04 08:31:05;;;;;;;4.68;2.05;;;7.50;99.90;;;;;;5139377;27;20043;-67
2023/04/04 08:33:30;;;;;;;8.75;2.25;;;7.60;99.90;;;;;;5138981;27;20035;-67
2023/04/04 08:35:57;;;;;;;6.82;1.77;;;7.70;99.90;;;;;;5139154;27;20104;-68
2023/04/04 08:38:23;;;;;;;4.78;1.83;;;7.70;99.90;;;;;;5138879;27;20039;-68
2023/04/04 08:40:49;;;;;;;4.93;1.38;;;7.80;99.90;;;;;;5139053;27;20115;-67
2023/04/04 08:43:16;;;;;;;7.28;1.40;;;7.80;99.90;;;;;;5139093;27;20106;-67
2023/04/04 08:45:43;;;;;;;5.55;1.20;;;7.60;99.90;;;;;;5138995;27;20031;-67
2023/04/04 08:48:11;;;;;;;5.25;1.20;;;7.70;99.90;;;;;;5138665;27;20439;-68
2023/04/04 08:50:40;;;;;;;5.38;1.20;;;7.80;99.90;;;;;;5138619;27;20397;-68
2023/04/04 08:53:07;;;;;;;6.07;1.40;;;7.80;99.90;;;;;;5138564;27;20504;-68
2023/04/04 08:55:33;;;;;;;4.28;1.15;;;7.90;99.90;;;;;;5138862;27;20031;-67
2023/04/04 08:57:59;;;;;;;6.20;1.33;;;8.00;99.90;;;;;;5138687;27;20038;-68
2023/04/04 09:00:25;;;;;;;6.60;1.77;;;8.20;99.90;;;;;;5138775;27;20038;-68
2023/04/04 09:03:08;;;;;;;6.63;1.50;;;8.10;99.90;;;;;;5138300;27;20062;-68
2023/04/04 09:05:34;;;;;;;4.18;1.73;;;8.00;99.90;;;;;;5138524;27;20082;-68
2023/04/04 09:08:02;;;;;;;4.38;1.50;;;8.30;99.90;;;;;;5119862;27;20078;-74
2023/04/04 09:10:28;;;;;;;4.13;1.20;;;8.50;99.90;;;;;;5138288;27;20051;-74
2023/04/04 09:12:56;;;;;;;5.70;1.40;;;8.50;99.90;;;;;;5138525;27;20227;-68
2023/04/04 09:15:22;;;;;;;4.22;1.42;;;8.00;99.90;;;;;;5138187;27;20470;-68
2023/04/04 09:17:48;;;;;;;6.95;1.15;;;8.10;99.90;;;;;;5086046;27;20134;-68
2023/04/04 09:20:40;;;;;;;4.88;1.10;;;8.30;99.90;;;;;;5119615;27;20078;-68
2023/04/04 09:23:10;;;;;;;5.35;1.00;;;8.60;99.90;;;;;;5138349;27;20035;-68
2023/04/04 09:25:36;;;;;;;4.72;1.50;;;8.90;99.90;;;;;;5138356;27;20098;-70
2023/04/04 09:28:04;;;;;;;6.03;1.50;;;9.00;99.90;;;;;;5138531;27;20301;-69
2023/04/04 09:30:31;;;;;;;55.03;3.20;;;8.80;99.90;;;;;;5138195;27;20046;-68
2023/04/04 09:33:00;;;;;;;4.40;1.30;;;8.90;99.90;;;;;;5138194;27;20051;-68
2023/04/04 09:35:26;;;;;;;5.20;1.45;;;9.20;99.90;;;;;;5138168;27;20099;-68
2023/04/04 09:37:52;;;;;;;5.68;1.45;;;9.40;99.90;;;;;;5137669;27;20039;-69
2023/04/04 09:40:18;;;;;;;6.32;1.50;;;9.50;99.90;;;;;;5138020;27;20050;-68
2023/04/04 09:42:44;;;;;;;7.55;1.40;;;9.60;99.90;;;;;;5137969;27;20045;-68
2023/04/04 09:45:10;;;;;;;6.43;1.73;;;9.40;99.90;;;;;;5138017;27;20046;-68
2023/04/04 09:47:41;;;;;;;3.30;0.82;;;9.60;99.90;;;;;;5137992;27;20031;-68
2023/04/04 09:55:36;;;;;;;3.55;1.30;;;9.50;99.90;;;;;;5115245;27;20112;-70
2023/04/04 09:58:30;;;;;;;6.85;1.77;;;9.20;99.90;;;;;;5130824;28;20337;-72
2023/04/04 10:00:59;;;;;;;3.80;1.17;;;9.40;99.90;;;;;;5114670;28;20031;-70
2023/04/04 10:03:25;;;;;;;6.03;1.23;;;9.60;99.90;;;;;;5114297;28;20449;-71
2023/04/04 10:06:09;;;;;;;9.63;1.92;;;9.60;99.90;;;;;;5114980;28;20039;-81
2023/04/04 10:08:39;;;;;;;6.35;1.48;;;9.40;99.90;;;;;;5114940;28;20052;-79
2023/04/04 10:11:05;;;;;;;2.85;1.13;;;9.60;99.90;;;;;;5096758;28;20054;-71
2023/04/04 10:13:34;;;;;;;6.85;1.75;;;9.60;99.90;;;;;;5114371;28;20073;-71
2023/04/04 10:16:02;;;;;;;5.88;1.55;;;9.90;99.90;;;;;;5114421;28;20036;-71
2023/04/04 10:18:33;;;;;;;5.13;1.35;;;10.00;99.90;;;;;;5114385;28;20040;-73
2023/04/04 10:21:07;;;;;;;5.03;1.45;;;10.10;99.90;;;;;;5114666;28;20040;-78
2023/04/04 10:23:34;;;;;;;4.68;1.38;;;9.90;99.90;;;;;;5115114;28;20071;-78
2023/04/04 10:26:00;;;;;;;4.57;1.60;;;9.90;99.90;;;;;;5114847;28;20105;-78
2023/04/04 10:28:26;;;;;;;5.30;1.48;;;10.00;99.90;;;;;;5115253;28;20340;-79
2023/04/04 10:31:20;;;;;;;8.50;1.80;;;10.00;99.90;;;;;;5114793;28;20047;-79
2023/04/04 10:34:08;;;;;;;9.43;2.40;;;10.00;99.90;;;;;;5115455;28;20040;-79
2023/04/04 10:36:47;;;;;;;5.95;1.70;;;10.10;99.90;;;;;;5114247;28;20043;-78
2023/04/04 10:39:14;;;;;;;6.32;2.03;;;9.80;99.90;;;;;;5114597;28;20413;-78
2023/04/04 10:41:40;;;;;;;5.32;1.50;;;9.90;99.90;;;;;;5114750;28;20064;-78
2023/04/04 10:44:22;;;;;;;7.20;2.05;;;10.10;99.90;;;;;;5114258;28;20113;-78
2023/04/04 10:46:52;;;;;;;6.35;2.20;;;10.10;99.90;;;;;;5114474;28;20043;-79
2023/04/04 10:49:20;;;;;;;5.75;1.23;;;10.30;99.90;;;;;;5114971;28;20065;-78
2023/04/04 10:51:47;;;;;;;5.97;2.13;;;10.30;99.90;;;;;;5114477;28;20391;-78
2023/04/04 10:54:13;;;;;;;7.03;1.80;;;10.20;99.90;;;;;;5114417;28;20040;-78
2023/04/04 10:56:40;;;;;;;6.50;1.90;;;10.00;99.90;;;;;;5114184;28;20044;-79
2023/04/04 10:59:14;;;;;;;5.35;1.80;;;10.00;99.90;;;;;;5113980;28;20036;-79
2023/04/04 11:01:56;;;;;;;4.43;2.05;;;10.00;99.90;;;;;;5114374;28;20042;-79
2023/04/04 11:04:37;;;;;;;7.10;2.15;;;10.20;99.90;;;;;;5114407;28;20052;-71
2023/04/04 11:07:18;;;;;;;4.88;1.83;;;10.50;99.90;;;;;;5099064;28;20036;-78
2023/04/04 11:09:59;;;;;;;5.43;1.48;;;10.80;99.90;;;;;;5100026;28;20097;-70
2023/04/04 11:12:31;;;;;;;6.00;1.70;;;10.90;99.90;;;;;;5099400;28;20518;-71
2023/04/04 11:15:09;;;;;;;7.15;2.20;;;11.20;99.90;;;;;;5099619;28;20036;-74
2023/04/04 11:17:57;;;;;;;4.97;1.52;;;11.50;99.90;;;;;;5099351;28;20475;-71
2023/04/04 11:20:34;;;;;;;5.70;1.77;;;12.00;99.90;;;;;;5099583;28;20118;-70
2023/04/04 11:23:08;;;;;;;7.20;1.98;;;12.00;99.90;;;;;;5099604;28;20076;-72
2023/04/04 11:25:38;;;;;;;5.10;2.08;;;11.90;99.90;;;;;;5099197;28;20425;-71
2023/04/04 11:28:42;;;;;;;3.55;1.63;;;12.30;99.90;;;;;;5099139;28;20441;-71
2023/04/04 11:31:17;;;;;;;3.88;1.63;;;12.80;99.90;;;;;;5099427;28;20071;-71
2023/04/04 11:34:07;;;;;;;3.53;1.52;;;12.80;99.90;;;;;;5099222;28;20040;-72
2023/04/04 11:36:36;;;;;;;8.25;1.70;;;12.60;99.90;;;;;;5098661;28;20054;-72
2023/04/04 11:39:24;;;;;;;3.78;1.48;;;12.90;99.90;;;;;;5099228;28;20115;-72
2023/04/04 11:42:09;;;;;;;6.65;1.50;;;13.10;99.90;;;;;;5099174;28;20048;-72
2023/04/04 11:44:49;;;;;;;4.90;1.58;;;13.60;99.90;;;;;;5098858;28;20460;-72
2023/04/04 11:47:21;;;;;;;4.53;1.70;;;14.00;99.90;;;;;;5099057;28;20047;-72
2023/04/04 11:49:48;;;;;;;4.65;1.77;;;14.00;99.90;;;;;;5099009;28;20040;-72
2023/04/04 11:52:16;;;;;;;4.85;1.73;;;14.10;99.90;;;;;;5098977;28;20108;-69
2023/04/04 11:54:44;;;;;;;3.92;1.70;;;14.00;99.90;;;;;;5098579;28;20077;-70
2023/04/04 11:57:12;;;;;;;5.28;1.50;;;13.90;99.90;;;;;;5098835;28;20067;-71
2023/04/04 11:59:43;;;;;;;5.78;1.75;;;13.80;99.90;;;;;;5097500;28;20078;-70
2023/04/04 12:02:09;;;;;;;4.07;1.70;;;14.10;99.90;;;;;;5098837;28;20081;-70
2023/04/04 12:04:36;;;;;;;4.93;1.65;;;13.60;99.90;;;;;;5098479;28;20040;-68
2023/04/04 12:07:05;;;;;;;7.95;2.00;;;13.70;99.90;;;;;;5098372;28;20127;-71
2023/04/04 12:09:32;;;;;;;3.20;1.58;;;14.10;99.90;;;;;;5098677;28;20077;-71
2023/04/04 12:11:58;;;;;;;5.95;2.05;;;14.50;99.90;;;;;;5098569;28;20044;-71
2023/04/04 12:14:26;;;;;;;3.10;1.35;;;14.60;99.90;;;;;;5098427;28;20050;-71
2023/04/04 12:16:53;;;;;;;6.63;1.70;;;14.90;99.90;;;;;;5097354;28;20044;-70
2023/04/04 12:19:21;;;;;;;5.00;1.88;;;15.40;99.90;;;;;;5098314;28;20028;-73
2023/04/04 12:21:48;;;;;;;6.72;1.83;;;15.20;99.90;;;;;;5098325;28;20051;-71
2023/04/04 12:24:15;;;;;;;5.22;1.75;;;15.30;99.90;;;;;;5098331;28;20048;-71
2023/04/04 12:26:47;;;;;;;4.50;1.50;;;15.80;99.90;;;;;;5098283;28;20061;-71
2023/04/04 12:29:14;;;;;;;3.78;1.73;;;15.90;99.90;;;;;;5098293;28;20044;-71
2023/04/04 12:31:43;;;;;;;5.35;2.05;;;15.50;99.90;;;;;;5097883;28;20043;-70
2023/04/04 12:34:16;;;;;;;5.05;1.80;;;15.70;99.90;;;;;;5097754;28;20425;-71
2023/04/04 12:36:43;;;;;;;5.63;1.90;;;15.80;99.90;;;;;;5097437;28;20044;-71
2023/04/04 12:39:12;;;;;;;4.80;1.80;;;15.70;99.90;;;;;;5098046;28;20035;-71
2023/04/04 12:41:52;;;;;;;4.10;1.80;;;15.20;99.90;;;;;;5097985;28;20028;-71
2023/04/04 12:44:44;;;;;;;5.30;2.00;;;14.80;99.90;;;;;;5096674;28;20127;-71
2023/04/04 12:47:16;;;;;;;3.25;1.50;;;15.20;99.90;;;;;;5094909;28;20438;-71
2023/04/04 12:49:47;;;;;;;5.78;1.95;;;15.50;99.90;;;;;;5097884;28;20128;-71
2023/04/04 12:52:21;;;;;;;3.88;1.95;;;15.50;99.90;;;;;;5097854;28;20072;-71
2023/04/04 12:54:49;;;;;;;6.68;2.03;;;15.50;99.90;;;;;;5097412;28;20496;-71
2023/04/04 12:57:24;;;;;;;5.07;2.00;;;15.40;99.90;;;;;;5097375;28;20093;-71
2023/04/04 12:59:53;;;;;;;3.88;1.67;;;15.40;99.90;;;;;;5097731;28;20101;-71
2023/04/04 13:02:21;;;;;;;5.63;1.88;;;15.10;99.90;;;;;;5097376;28;20118;-71
2023/04/04 13:04:51;;;;;;;4.78;1.80;;;15.40;99.90;;;;;;5097306;28;20043;-71